createdAt,value
2023-05-21T00:00:54.921Z,1007.85
2023-05-21T00:01:55.043Z,1007.83
2023-05-21T00:02:55.321Z,1007.85
2023-05-21T00:03:56.856Z,1007.83
2023-05-21T00:04:55.652Z,1007.91
2023-05-21T00:05:55.805Z,1007.77
2023-05-21T00:06:57.809Z,1007.84
2023-05-21T00:07:56.208Z,1007.79
2023-05-21T00:08:56.393Z,1007.85
2023-05-21T00:09:56.564Z,1007.82
2023-05-21T00:10:56.754Z,1007.91
2023-05-21T00:11:56.902Z,1007.89
2023-05-21T00:12:57.038Z,1007.87
2023-05-21T00:13:58.141Z,1007.85
2023-05-21T00:14:57.419Z,1007.82
2023-05-21T00:15:58.405Z,1007.85
2023-05-21T00:16:57.726Z,1007.81
2023-05-21T00:17:57.894Z,1007.77
2023-05-21T00:18:58.213Z,1007.79
2023-05-21T00:19:58.785Z,1007.78
2023-05-21T00:20:59.281Z,1007.82
2023-05-21T00:21:59.281Z,1007.80
2023-05-21T00:22:58.667Z,1007.74
2023-05-21T00:23:58.825Z,1007.75
2023-05-21T00:24:58.957Z,1007.72
2023-05-21T00:25:59.122Z,1007.73
2023-05-21T00:26:59.818Z,1007.71
2023-05-21T00:27:59.455Z,1007.71
2023-05-21T00:29:00.325Z,1007.68
2023-05-21T00:30:00.829Z,1007.69
2023-05-21T00:30:59.974Z,1007.72
2023-05-21T00:32:00.265Z,1007.65
2023-05-21T00:33:00.349Z,1007.71
2023-05-21T00:34:00.488Z,1007.65
2023-05-21T00:35:01.166Z,1007.63
2023-05-21T00:36:01.787Z,1007.56
2023-05-21T00:37:01.331Z,1007.61
2023-05-21T00:38:01.040Z,1007.58
2023-05-21T00:39:01.779Z,1007.61
2023-05-21T00:40:01.384Z,1007.63
2023-05-21T00:41:02.286Z,1007.65
2023-05-21T00:42:01.686Z,1007.67
2023-05-21T00:43:01.824Z,1007.64
2023-05-21T00:44:01.947Z,1007.71
2023-05-21T00:45:02.346Z,1007.62
2023-05-21T00:46:02.342Z,1007.64
2023-05-21T00:47:02.422Z,1007.58
2023-05-21T00:48:03.308Z,1007.61
2023-05-21T00:49:02.718Z,1007.61
2023-05-21T00:50:02.884Z,1007.63
2023-05-21T00:51:03.069Z,1007.53
2023-05-21T00:52:03.821Z,1007.59
2023-05-21T00:53:03.478Z,1007.60
2023-05-21T00:54:04.284Z,1007.57
2023-05-21T00:55:03.836Z,1007.54
2023-05-21T00:56:04.013Z,1007.56
2023-05-21T00:57:04.179Z,1007.59
2023-05-21T00:58:04.333Z,1007.55
2023-05-21T00:59:04.493Z,1007.56
2023-05-21T01:00:04.664Z,1007.57
2023-05-21T01:01:04.892Z,1007.57
2023-05-21T01:02:06.837Z,1007.54
2023-05-21T01:03:05.324Z,1007.63
2023-05-21T01:04:05.508Z,1007.59
2023-05-21T01:05:05.717Z,1007.58
2023-05-21T01:06:05.903Z,1007.58
2023-05-21T01:07:06.076Z,1007.59
2023-05-21T01:08:07.149Z,1007.55
2023-05-21T01:09:07.371Z,1007.57
2023-05-21T01:10:06.605Z,1007.59
2023-05-21T01:11:07.806Z,1007.57
2023-05-21T01:12:06.970Z,1007.53
2023-05-21T01:13:07.351Z,1007.52
2023-05-21T01:14:08.306Z,1007.49
2023-05-21T01:15:07.617Z,1007.53
2023-05-21T01:16:07.777Z,1007.53
2023-05-21T01:17:07.990Z,1007.51
2023-05-21T01:18:08.133Z,1007.49
2023-05-21T01:19:08.400Z,1007.46
2023-05-21T01:20:09.337Z,1007.51
2023-05-21T01:21:08.700Z,1007.51
2023-05-21T01:22:08.878Z,1007.56
2023-05-21T01:23:09.092Z,1007.57
2023-05-21T01:24:09.293Z,1007.54
2023-05-21T01:25:09.484Z,1007.56
2023-05-21T01:26:10.292Z,1007.62
2023-05-21T01:27:09.815Z,1007.62
2023-05-21T01:28:11.288Z,1007.56
2023-05-21T01:29:10.170Z,1007.58
2023-05-21T01:30:10.331Z,1007.51
2023-05-21T01:31:11.298Z,1007.54
2023-05-21T01:32:10.673Z,1007.62
2023-05-21T01:33:11.843Z,1007.56
2023-05-21T01:34:11.113Z,1007.64
2023-05-21T01:35:11.802Z,1007.61
2023-05-21T01:36:12.334Z,1007.62
2023-05-21T01:37:12.304Z,1007.64
2023-05-21T01:38:11.739Z,1007.59
2023-05-21T01:39:12.361Z,1007.58
2023-05-21T01:40:12.039Z,1007.56
2023-05-21T01:41:12.222Z,1007.52
2023-05-21T01:42:12.435Z,1007.52
2023-05-21T01:43:12.670Z,1007.53
2023-05-21T01:44:12.859Z,1007.53
2023-05-21T01:45:13.838Z,1007.49
2023-05-21T01:46:13.288Z,1007.53
2023-05-21T01:47:14.295Z,1007.51
2023-05-21T01:48:14.299Z,1007.47
2023-05-21T01:49:13.703Z,1007.52
2023-05-21T01:50:14.805Z,1007.50
2023-05-21T01:51:14.051Z,1007.50
2023-05-21T01:52:14.829Z,1007.47
2023-05-21T01:53:14.326Z,1007.48
2023-05-21T01:54:15.297Z,1007.40
2023-05-21T01:55:14.703Z,1007.57
2023-05-21T01:56:14.863Z,1007.46
2023-05-21T01:57:15.047Z,1007.55
2023-05-21T01:58:15.202Z,1007.52
2023-05-21T01:59:15.360Z,1007.54
2023-05-21T02:00:15.487Z,1007.52
2023-05-21T02:01:15.644Z,1007.49
2023-05-21T02:02:15.978Z,1007.47
2023-05-21T02:03:16.219Z,1007.49
2023-05-21T02:04:16.212Z,1007.43
2023-05-21T02:05:16.396Z,1007.50
2023-05-21T02:06:16.600Z,1007.52
2023-05-21T02:07:17.308Z,1007.47
2023-05-21T02:08:17.804Z,1007.44
2023-05-21T02:09:17.845Z,1007.44
2023-05-21T02:10:17.810Z,1007.54
2023-05-21T02:11:17.860Z,1007.46
2023-05-21T02:12:18.306Z,1007.48
2023-05-21T02:13:17.865Z,1007.47
2023-05-21T02:14:18.848Z,1007.42
2023-05-21T02:15:18.301Z,1007.55
2023-05-21T02:16:18.395Z,1007.52
2023-05-21T02:17:18.602Z,1007.54
2023-05-21T02:18:19.324Z,1007.49
2023-05-21T02:19:19.387Z,1007.52
2023-05-21T02:20:19.240Z,1007.51
2023-05-21T02:21:19.403Z,1007.53
2023-05-21T02:22:20.359Z,1007.53
2023-05-21T02:23:19.719Z,1007.48
2023-05-21T02:24:19.868Z,1007.50
2023-05-21T02:25:20.362Z,1007.48
2023-05-21T02:26:20.814Z,1007.45
2023-05-21T02:27:21.312Z,1007.50
2023-05-21T02:28:20.665Z,1007.47
2023-05-21T02:29:20.811Z,1007.48
2023-05-21T02:30:21.862Z,1007.49
2023-05-21T02:31:21.248Z,1007.56
2023-05-21T02:32:21.519Z,1007.56
2023-05-21T02:33:21.597Z,1007.47
2023-05-21T02:34:21.839Z,1007.48
2023-05-21T02:35:22.024Z,1007.44
2023-05-21T02:36:22.821Z,1007.47
2023-05-21T02:37:22.375Z,1007.47
2023-05-21T02:38:22.558Z,1007.47
2023-05-21T02:39:22.684Z,1007.45
2023-05-21T02:40:22.855Z,1007.43
2023-05-21T02:41:23.822Z,1007.37
2023-05-21T02:42:23.857Z,1007.39
2023-05-21T02:43:23.403Z,1007.37
2023-05-21T02:44:24.829Z,1007.39
2023-05-21T02:45:25.318Z,1007.39
2023-05-21T02:46:25.909Z,1007.42
2023-05-21T02:47:24.201Z,1007.46
2023-05-21T02:48:24.316Z,1007.42
2023-05-21T02:49:25.325Z,1007.48
2023-05-21T02:50:24.714Z,1007.47
2023-05-21T02:51:24.864Z,1007.50
2023-05-21T02:52:25.057Z,1007.45
2023-05-21T02:53:25.230Z,1007.48
2023-05-21T02:54:26.419Z,1007.47
2023-05-21T02:55:25.553Z,1007.47
2023-05-21T02:56:26.361Z,1007.44
2023-05-21T02:57:25.905Z,1007.43
2023-05-21T02:58:26.100Z,1007.46
2023-05-21T02:59:26.257Z,1007.46
2023-05-21T03:00:26.444Z,1007.48
2023-05-21T03:01:28.373Z,1007.43
2023-05-21T03:02:26.934Z,1007.41
2023-05-21T03:03:27.066Z,1007.47
2023-05-21T03:04:27.818Z,1007.50
2023-05-21T03:05:27.369Z,1007.46
2023-05-21T03:06:27.547Z,1007.53
2023-05-21T03:07:27.740Z,1007.47
2023-05-21T03:08:27.938Z,1007.48
2023-05-21T03:09:28.118Z,1007.45
2023-05-21T03:10:28.309Z,1007.49
2023-05-21T03:11:28.512Z,1007.46
2023-05-21T03:12:28.696Z,1007.46
2023-05-21T03:13:28.901Z,1007.46
2023-05-21T03:14:29.089Z,1007.47
2023-05-21T03:15:29.260Z,1007.45
2023-05-21T03:16:29.483Z,1007.50
2023-05-21T03:17:30.419Z,1007.53
2023-05-21T03:18:30.332Z,1007.54
2023-05-21T03:19:29.957Z,1007.51
2023-05-21T03:20:30.018Z,1007.52
2023-05-21T03:21:30.219Z,1007.52
2023-05-21T03:22:30.397Z,1007.48
2023-05-21T03:23:30.567Z,1007.39
2023-05-21T03:24:32.829Z,1007.45
2023-05-21T03:25:30.961Z,1007.37
2023-05-21T03:26:31.138Z,1007.32
2023-05-21T03:27:33.188Z,1007.34
2023-05-21T03:28:32.329Z,1007.39
2023-05-21T03:29:31.742Z,1007.31
2023-05-21T03:30:31.895Z,1007.35
2023-05-21T03:31:32.111Z,1007.38
2023-05-21T03:32:33.388Z,1007.40
2023-05-21T03:33:32.411Z,1007.43
2023-05-21T03:34:32.592Z,1007.36
2023-05-21T03:35:34.508Z,1007.38
2023-05-21T03:36:32.994Z,1007.41
2023-05-21T03:37:34.833Z,1007.43
2023-05-21T03:38:34.860Z,1007.45
2023-05-21T03:39:33.551Z,1007.43
2023-05-21T03:40:33.712Z,1007.39
2023-05-21T03:41:33.911Z,1007.48
2023-05-21T03:42:34.881Z,1007.41
2023-05-21T03:43:34.253Z,1007.45
2023-05-21T03:44:35.372Z,1007.49
2023-05-21T03:45:34.637Z,1007.53
2023-05-21T03:46:34.834Z,1007.51
2023-05-21T03:47:35.040Z,1007.49
2023-05-21T03:48:35.214Z,1007.51
2023-05-21T03:49:36.832Z,1007.48
2023-05-21T03:50:35.591Z,1007.50
2023-05-21T03:51:35.785Z,1007.48
2023-05-21T03:52:36.831Z,1007.55
2023-05-21T03:53:36.090Z,1007.52
2023-05-21T03:54:36.244Z,1007.55
2023-05-21T03:55:38.429Z,1007.61
2023-05-21T03:56:37.835Z,1007.55
2023-05-21T03:57:36.837Z,1007.53
2023-05-21T03:58:37.046Z,1007.49
2023-05-21T03:59:37.829Z,1007.51
2023-05-21T04:00:38.836Z,1007.48
2023-05-21T04:01:38.334Z,1007.49
2023-05-21T04:02:37.774Z,1007.49
2023-05-21T04:03:40.589Z,1007.48
2023-05-21T04:04:39.861Z,1007.52
2023-05-21T04:05:38.295Z,1007.47
2023-05-21T04:06:39.204Z,1007.54
2023-05-21T04:07:38.579Z,1007.54
2023-05-21T04:08:39.376Z,1007.56
2023-05-21T04:09:39.702Z,1007.55
2023-05-21T04:10:39.851Z,1007.52
2023-05-21T04:11:39.277Z,1007.53
2023-05-21T04:12:40.205Z,1007.49
2023-05-21T04:13:39.647Z,1007.49
2023-05-21T04:14:39.853Z,1007.48
2023-05-21T04:15:40.182Z,1007.47
2023-05-21T04:16:40.273Z,1007.45
2023-05-21T04:17:40.453Z,1007.42
2023-05-21T04:18:44.138Z,1007.47
2023-05-21T04:19:40.812Z,1007.44
2023-05-21T04:20:40.996Z,1007.39
2023-05-21T04:21:42.860Z,1007.36
2023-05-21T04:22:41.365Z,1007.35
2023-05-21T04:23:41.540Z,1007.34
2023-05-21T04:24:41.708Z,1007.35
2023-05-21T04:25:43.346Z,1007.43
2023-05-21T04:26:42.124Z,1007.40
2023-05-21T04:27:42.284Z,1007.40
2023-05-21T04:28:42.453Z,1007.42
2023-05-21T04:29:42.653Z,1007.33
2023-05-21T04:30:42.788Z,1007.43
2023-05-21T04:31:43.907Z,1007.42
2023-05-21T04:32:43.147Z,1007.42
2023-05-21T04:33:43.308Z,1007.44
2023-05-21T04:34:44.343Z,1007.42
2023-05-21T04:35:43.594Z,1007.42
2023-05-21T04:36:44.344Z,1007.45
2023-05-21T04:37:43.919Z,1007.44
2023-05-21T04:38:44.844Z,1007.45
2023-05-21T04:39:44.206Z,1007.33
2023-05-21T04:40:44.338Z,1007.44
2023-05-21T04:41:44.494Z,1007.45
2023-05-21T04:42:44.635Z,1007.45
2023-05-21T04:43:44.784Z,1007.46
2023-05-21T04:44:44.907Z,1007.44
2023-05-21T04:45:45.887Z,1007.40
2023-05-21T04:46:45.300Z,1007.36
2023-05-21T04:47:45.493Z,1007.38
2023-05-21T04:48:45.658Z,1007.39
2023-05-21T04:49:45.815Z,1007.37
2023-05-21T04:50:45.933Z,1007.37
2023-05-21T04:51:46.093Z,1007.36
2023-05-21T04:52:46.862Z,1007.39
2023-05-21T04:53:46.375Z,1007.36
2023-05-21T04:54:47.933Z,1007.29
2023-05-21T04:55:46.708Z,1007.29
2023-05-21T04:56:46.864Z,1007.27
2023-05-21T04:57:47.043Z,1007.32
2023-05-21T04:58:47.912Z,1007.22
2023-05-21T04:59:47.347Z,1007.28
2023-05-21T05:00:49.430Z,1007.20
2023-05-21T05:01:48.216Z,1007.21
2023-05-21T05:02:47.958Z,1007.18
2023-05-21T05:03:48.100Z,1007.17
2023-05-21T05:04:48.893Z,1007.16
2023-05-21T05:05:48.418Z,1007.13
2023-05-21T05:06:48.622Z,1007.08
2023-05-21T05:07:48.808Z,1007.08
2023-05-21T05:08:49.018Z,1007.11
2023-05-21T05:09:49.190Z,1007.10
2023-05-21T05:10:49.332Z,1007.04
2023-05-21T05:11:50.355Z,1007.05
2023-05-21T05:12:50.359Z,1007.12
2023-05-21T05:13:49.870Z,1007.09
2023-05-21T05:14:50.058Z,1007.05
2023-05-21T05:15:51.485Z,1007.10
2023-05-21T05:16:51.562Z,1007.03
2023-05-21T05:17:50.686Z,1007.04
2023-05-21T05:18:50.941Z,1007.03
2023-05-21T05:19:51.028Z,1007.01
2023-05-21T05:20:51.858Z,1006.99
2023-05-21T05:21:52.367Z,1006.95
2023-05-21T05:22:51.500Z,1006.97
2023-05-21T05:23:52.407Z,1006.92
2023-05-21T05:24:52.404Z,1006.94
2023-05-21T05:25:51.945Z,1006.84
2023-05-21T05:26:52.096Z,1006.90
2023-05-21T05:27:52.266Z,1006.92
2023-05-21T05:28:52.471Z,1006.82
2023-05-21T05:29:53.367Z,1006.81
2023-05-21T05:30:53.453Z,1006.83
2023-05-21T05:31:52.924Z,1006.78
2023-05-21T05:32:53.918Z,1006.77
2023-05-21T05:33:53.210Z,1006.76
2023-05-21T05:34:54.007Z,1006.77
2023-05-21T05:35:54.565Z,1006.69
2023-05-21T05:36:53.703Z,1006.75
2023-05-21T05:37:53.900Z,1006.73
2023-05-21T05:38:54.899Z,1006.76
2023-05-21T05:39:54.295Z,1006.75
2023-05-21T05:40:54.485Z,1006.78
2023-05-21T05:41:54.686Z,1006.72
2023-05-21T05:42:54.866Z,1006.75
2023-05-21T05:43:55.031Z,1006.78
2023-05-21T05:44:55.189Z,1006.78
2023-05-21T05:45:55.883Z,1006.77
2023-05-21T05:46:56.361Z,1006.77
2023-05-21T05:47:56.460Z,1006.75
2023-05-21T05:48:55.903Z,1006.80
2023-05-21T05:49:56.099Z,1006.80
2023-05-21T05:50:56.266Z,1006.75
2023-05-21T05:51:56.550Z,1006.71
2023-05-21T05:52:56.616Z,1006.78
2023-05-21T05:53:56.800Z,1006.77
2023-05-21T05:54:56.945Z,1006.76
2023-05-21T05:55:58.862Z,1006.74
2023-05-21T05:56:57.880Z,1006.73
2023-05-21T05:57:57.420Z,1006.75
2023-05-21T05:58:58.234Z,1006.69
2023-05-21T05:59:59.237Z,1006.72
2023-05-21T06:00:58.406Z,1006.74
2023-05-21T06:01:58.065Z,1006.72
2023-05-21T06:02:58.306Z,1006.67
2023-05-21T06:03:59.872Z,1006.63
2023-05-21T06:04:58.647Z,1006.70
2023-05-21T06:05:58.933Z,1006.70
2023-05-21T06:06:59.036Z,1006.68
2023-05-21T06:07:59.199Z,1006.70
2023-05-21T06:08:59.930Z,1006.70
2023-05-21T06:09:59.926Z,1006.66
2023-05-21T06:10:59.751Z,1006.77
2023-05-21T06:12:00.871Z,1006.70
2023-05-21T06:13:00.154Z,1006.69
2023-05-21T06:14:00.388Z,1006.69
2023-05-21T06:15:00.511Z,1006.60
2023-05-21T06:16:01.892Z,1006.66
2023-05-21T06:17:00.918Z,1006.74
2023-05-21T06:18:01.109Z,1006.68
2023-05-21T06:19:01.397Z,1006.68
2023-05-21T06:20:02.433Z,1006.72
2023-05-21T06:21:02.376Z,1006.67
2023-05-21T06:22:01.802Z,1006.76
2023-05-21T06:23:01.969Z,1006.58
2023-05-21T06:24:02.133Z,1006.63
2023-05-21T06:25:02.917Z,1006.62
2023-05-21T06:26:02.468Z,1006.63
2023-05-21T06:27:02.655Z,1006.56
2023-05-21T06:28:02.820Z,1006.55
2023-05-21T06:29:04.014Z,1006.58
2023-05-21T06:30:03.918Z,1006.58
2023-05-21T06:31:03.923Z,1006.56
2023-05-21T06:32:03.592Z,1006.57
2023-05-21T06:33:04.424Z,1006.52
2023-05-21T06:34:04.135Z,1006.45
2023-05-21T06:35:04.920Z,1006.45
2023-05-21T06:36:04.918Z,1006.45
2023-05-21T06:37:04.458Z,1006.40
2023-05-21T06:38:05.243Z,1006.44
2023-05-21T06:39:05.416Z,1006.34
2023-05-21T06:40:05.997Z,1006.36
2023-05-21T06:41:05.123Z,1006.37
2023-05-21T06:42:05.267Z,1006.36
2023-05-21T06:43:05.499Z,1006.37
2023-05-21T06:44:06.382Z,1006.33
2023-05-21T06:45:05.770Z,1006.35
2023-05-21T06:46:05.967Z,1006.37
2023-05-21T06:47:06.140Z,1006.32
2023-05-21T06:48:06.930Z,1006.33
2023-05-21T06:49:06.478Z,1006.31
2023-05-21T06:50:06.688Z,1006.33
2023-05-21T06:51:06.799Z,1006.24
2023-05-21T06:52:06.939Z,1006.31
2023-05-21T06:53:07.921Z,1006.29
2023-05-21T06:54:07.928Z,1006.23
2023-05-21T06:55:07.459Z,1006.21
2023-05-21T06:56:07.590Z,1006.25
2023-05-21T06:57:07.732Z,1006.25
2023-05-21T06:58:07.869Z,1006.22
2023-05-21T06:59:08.021Z,1006.22
2023-05-21T07:00:08.185Z,1006.17
2023-05-21T07:01:08.373Z,1006.16
2023-05-21T07:02:09.454Z,1006.15
2023-05-21T07:03:08.860Z,1006.14
2023-05-21T07:04:08.940Z,1006.10
2023-05-21T07:05:09.086Z,1006.05
2023-05-21T07:06:09.899Z,1006.02
2023-05-21T07:07:09.413Z,1006.03
2023-05-21T07:08:12.283Z,1006.04
2023-05-21T07:09:10.746Z,1006.09
2023-05-21T07:10:09.892Z,1006.02
2023-05-21T07:11:10.938Z,1006.03
2023-05-21T07:12:10.201Z,1005.98
2023-05-21T07:13:10.353Z,1005.98
2023-05-21T07:14:11.442Z,1005.97
2023-05-21T07:15:10.733Z,1005.96
2023-05-21T07:16:11.942Z,1006.02
2023-05-21T07:17:11.157Z,1005.93
2023-05-21T07:18:12.016Z,1005.93
2023-05-21T07:19:11.512Z,1006.01
2023-05-21T07:20:12.450Z,1006.02
2023-05-21T07:21:11.850Z,1005.87
2023-05-21T07:22:12.009Z,1005.92
2023-05-21T07:23:12.890Z,1005.90
2023-05-21T07:24:12.380Z,1005.82
2023-05-21T07:25:12.506Z,1005.86
2023-05-21T07:26:13.335Z,1005.87
2023-05-21T07:27:24.872Z,1005.92
2023-05-21T07:28:14.963Z,1005.85
2023-05-21T07:29:13.087Z,1005.86
2023-05-21T07:30:14.899Z,1005.83
2023-05-21T07:31:46.835Z,1005.78
2023-05-21T07:32:13.567Z,1005.77
2023-05-21T07:33:13.735Z,1005.83
2023-05-21T07:34:13.886Z,1005.80
2023-05-21T07:35:14.040Z,1005.76
2023-05-21T07:36:15.420Z,1005.66
2023-05-21T07:37:14.320Z,1005.66
2023-05-21T07:38:15.416Z,1005.59
2023-05-21T07:39:14.644Z,1005.60
2023-05-21T07:40:15.470Z,1005.62
2023-05-21T07:41:17.822Z,1005.57
2023-05-21T07:42:15.920Z,1005.61
2023-05-21T07:43:15.408Z,1005.53
2023-05-21T07:44:15.569Z,1005.60
2023-05-21T07:45:15.719Z,1005.53
2023-05-21T07:46:15.892Z,1005.50
2023-05-21T07:47:16.921Z,1005.50
2023-05-21T07:48:16.283Z,1005.50
2023-05-21T07:49:17.130Z,1005.46
2023-05-21T07:50:16.615Z,1005.46
2023-05-21T07:51:16.785Z,1005.44
2023-05-21T07:52:16.945Z,1005.48
2023-05-21T07:53:17.104Z,1005.46
2023-05-21T07:54:17.928Z,1005.41
2023-05-21T07:55:17.423Z,1005.39
2023-05-21T07:56:19.289Z,1005.40
2023-05-21T07:57:17.780Z,1005.31
2023-05-21T07:58:17.941Z,1005.33
2023-05-21T07:59:18.094Z,1005.24
2023-05-21T08:00:18.283Z,1005.21
2023-05-21T08:01:19.439Z,1005.18
2023-05-21T08:02:18.694Z,1005.14
2023-05-21T08:03:19.484Z,1005.10
2023-05-21T08:04:19.259Z,1005.16
2023-05-21T08:05:19.130Z,1005.08
2023-05-21T08:06:20.318Z,1005.09
2023-05-21T08:07:19.477Z,1005.12
2023-05-21T08:08:19.637Z,1005.09
2023-05-21T08:09:19.857Z,1005.11
2023-05-21T08:10:20.005Z,1005.11
2023-05-21T08:11:20.163Z,1005.08
2023-05-21T08:12:20.346Z,1005.01
2023-05-21T08:13:21.441Z,1005.04
2023-05-21T08:14:20.689Z,1004.97
2023-05-21T08:15:20.850Z,1004.98
2023-05-21T08:16:21.066Z,1005.00
2023-05-21T08:17:21.948Z,1004.95
2023-05-21T08:18:21.939Z,1004.93
2023-05-21T08:19:21.549Z,1004.91
2023-05-21T08:20:21.708Z,1004.81
2023-05-21T08:21:21.882Z,1004.76
2023-05-21T08:22:22.938Z,1004.75
2023-05-21T08:23:22.226Z,1004.64
2023-05-21T08:24:22.426Z,1004.58
2023-05-21T08:25:22.620Z,1004.49
2023-05-21T08:26:22.799Z,1004.48
2023-05-21T08:27:22.961Z,1004.46
2023-05-21T08:28:23.161Z,1004.31
2023-05-21T08:29:23.945Z,1004.30
2023-05-21T08:30:23.465Z,1004.24
2023-05-21T08:31:24.498Z,1004.20
2023-05-21T08:32:23.808Z,1004.20
2023-05-21T08:33:24.010Z,1004.19
2023-05-21T08:34:24.173Z,1004.13
2023-05-21T08:35:24.315Z,1004.10
2023-05-21T08:36:24.482Z,1004.13
2023-05-21T08:37:24.646Z,1004.08
2023-05-21T08:38:24.795Z,1003.99
2023-05-21T08:39:24.954Z,1003.99
2023-05-21T08:40:25.115Z,1004.01
2023-05-21T08:41:25.249Z,1003.98
2023-05-21T08:42:35.657Z,1003.96
2023-05-21T08:43:27.622Z,1003.93
2023-05-21T08:44:25.831Z,1003.95
2023-05-21T08:45:25.988Z,1003.74
2023-05-21T08:46:26.153Z,1003.66
2023-05-21T08:47:26.996Z,1003.62
2023-05-21T08:48:27.948Z,1003.59
2023-05-21T08:49:27.668Z,1003.59
2023-05-21T08:50:27.446Z,1003.51
2023-05-21T08:51:26.871Z,1003.41
2023-05-21T08:52:27.812Z,1003.40
2023-05-21T08:53:29.064Z,1003.38
2023-05-21T08:54:28.364Z,1003.35
2023-05-21T08:55:27.543Z,1003.32
2023-05-21T08:56:27.749Z,1003.27
2023-05-21T08:57:27.941Z,1003.22
2023-05-21T08:58:28.100Z,1003.24
2023-05-21T08:59:28.274Z,1003.30
2023-05-21T09:00:28.502Z,1003.28
2023-05-21T09:01:28.735Z,1003.27
2023-05-21T09:02:28.917Z,1003.24
2023-05-21T09:03:29.146Z,1003.28
2023-05-21T09:04:29.151Z,1003.24
2023-05-21T09:05:29.321Z,1003.25
2023-05-21T09:06:29.515Z,1003.22
2023-05-21T09:07:30.455Z,1003.25
2023-05-21T09:08:29.895Z,1003.26
2023-05-21T09:09:30.093Z,1003.29
2023-05-21T09:10:30.277Z,1003.28
2023-05-21T09:11:31.813Z,1003.27
2023-05-21T09:12:30.686Z,1003.23
2023-05-21T09:13:31.464Z,1003.26
2023-05-21T09:14:31.993Z,1003.32
2023-05-21T09:15:31.243Z,1003.28
2023-05-21T09:16:31.479Z,1003.30
2023-05-21T09:17:31.573Z,1003.33
2023-05-21T09:18:32.490Z,1003.27
2023-05-21T09:19:31.951Z,1003.20
2023-05-21T09:20:32.960Z,1003.21
2023-05-21T09:21:32.296Z,1003.22
2023-05-21T09:22:32.486Z,1003.16
2023-05-21T09:23:32.669Z,1003.12
2023-05-21T09:24:35.779Z,1003.12
2023-05-21T09:25:33.052Z,1003.02
2023-05-21T09:26:33.256Z,1002.98
2023-05-21T09:27:33.413Z,1002.91
2023-05-21T09:28:33.599Z,1002.88
2023-05-21T09:29:33.781Z,1002.92
2023-05-21T09:30:36.152Z,1002.89
2023-05-21T09:31:36.023Z,1002.97
2023-05-21T09:32:34.321Z,1003.02
2023-05-21T09:33:34.528Z,1002.98
2023-05-21T09:34:35.499Z,1002.98
2023-05-21T09:35:36.134Z,1002.99
2023-05-21T09:36:35.101Z,1003.01
2023-05-21T09:37:35.279Z,1003.01
2023-05-21T09:38:35.517Z,1003.02
2023-05-21T09:39:37.961Z,1003.02
2023-05-21T09:40:36.055Z,1003.07
2023-05-21T09:41:36.332Z,1003.10
2023-05-21T09:42:36.189Z,1003.09
2023-05-21T09:43:36.394Z,1003.15
2023-05-21T09:44:38.502Z,1003.12
2023-05-21T09:45:36.980Z,1003.20
2023-05-21T09:46:37.972Z,1003.21
2023-05-21T09:47:37.246Z,1003.27
2023-05-21T09:48:37.341Z,1003.29
2023-05-21T09:49:37.480Z,1003.28
2023-05-21T09:50:37.894Z,1003.31
2023-05-21T09:51:38.013Z,1003.24
2023-05-21T09:52:40.139Z,1003.32
2023-05-21T09:53:38.188Z,1003.35
2023-05-21T09:54:38.391Z,1003.38
2023-05-21T09:55:39.507Z,1003.40
2023-05-21T09:56:38.797Z,1003.32
2023-05-21T09:57:38.963Z,1003.37
2023-05-21T09:58:39.146Z,1003.41
2023-05-21T09:59:39.317Z,1003.38
2023-05-21T10:00:40.022Z,1003.36
2023-05-21T10:01:39.747Z,1003.39
2023-05-21T10:02:39.974Z,1003.39
2023-05-21T10:03:40.089Z,1003.42
2023-05-21T10:04:40.320Z,1003.32
2023-05-21T10:05:40.462Z,1003.38
2023-05-21T10:06:42.485Z,1003.38
2023-05-21T10:07:41.527Z,1003.33
2023-05-21T10:08:41.972Z,1003.32
2023-05-21T10:09:41.262Z,1003.34
2023-05-21T10:10:41.457Z,1003.27
2023-05-21T10:11:41.674Z,1003.28
2023-05-21T10:12:41.857Z,1003.25
2023-05-21T10:13:42.086Z,1003.23
2023-05-21T10:14:42.263Z,1003.19
2023-05-21T10:15:43.021Z,1003.19
2023-05-21T10:16:43.506Z,1003.18
2023-05-21T10:17:43.562Z,1003.22
2023-05-21T10:18:43.059Z,1003.23
2023-05-21T10:19:43.971Z,1003.24
2023-05-21T10:20:43.352Z,1003.33
2023-05-21T10:21:45.054Z,1003.26
2023-05-21T10:22:43.728Z,1003.25
2023-05-21T10:23:44.974Z,1003.26
2023-05-21T10:24:44.972Z,1003.26
2023-05-21T10:25:44.967Z,1003.26
2023-05-21T10:26:44.621Z,1003.24
2023-05-21T10:27:44.797Z,1003.26
2023-05-21T10:28:44.972Z,1003.25
2023-05-21T10:29:45.154Z,1003.32
2023-05-21T10:30:45.331Z,1003.28
2023-05-21T10:31:45.559Z,1003.25
2023-05-21T10:32:45.868Z,1003.26
2023-05-21T10:33:46.494Z,1003.23
2023-05-21T10:34:46.172Z,1003.25
2023-05-21T10:35:46.362Z,1003.15
2023-05-21T10:36:46.550Z,1003.17
2023-05-21T10:37:46.772Z,1003.18
2023-05-21T10:38:46.960Z,1003.16
2023-05-21T10:39:47.110Z,1003.15
2023-05-21T10:40:47.309Z,1003.13
2023-05-21T10:41:47.519Z,1003.13
2023-05-21T10:42:49.480Z,1003.08
2023-05-21T10:43:48.526Z,1003.07
2023-05-21T10:44:48.062Z,1002.98
2023-05-21T10:45:48.294Z,1003.05
2023-05-21T10:46:48.360Z,1002.99
2023-05-21T10:47:50.628Z,1002.94
2023-05-21T10:48:48.703Z,1002.94
2023-05-21T10:49:49.527Z,1002.83
2023-05-21T10:50:49.061Z,1002.79
2023-05-21T10:51:50.020Z,1002.78
2023-05-21T10:52:50.050Z,1002.74
2023-05-21T10:53:49.589Z,1002.72
2023-05-21T10:54:49.789Z,1002.66
2023-05-21T10:55:50.003Z,1002.62
2023-05-21T10:56:50.260Z,1002.60
2023-05-21T10:57:50.461Z,1002.61
2023-05-21T10:58:52.490Z,1002.59
2023-05-21T10:59:50.772Z,1002.61
2023-05-21T11:00:51.061Z,1002.55
2023-05-21T11:01:53.560Z,1002.45
2023-05-21T11:02:51.373Z,1002.53
2023-05-21T11:03:51.523Z,1002.52
2023-05-21T11:04:52.610Z,1002.55
2023-05-21T11:05:51.797Z,1002.58
2023-05-21T11:06:51.977Z,1002.59
2023-05-21T11:07:53.989Z,1002.62
2023-05-21T11:08:55.098Z,1002.60
2023-05-21T11:09:54.868Z,1002.55
2023-05-21T11:10:52.746Z,1002.56
2023-05-21T11:11:53.486Z,1002.53
2023-05-21T11:12:53.128Z,1002.53
2023-05-21T11:13:54.994Z,1002.47
2023-05-21T11:14:53.493Z,1002.48
2023-05-21T11:15:54.702Z,1002.43
2023-05-21T11:16:53.847Z,1002.42
2023-05-21T11:17:55.086Z,1002.44
2023-05-21T11:18:54.301Z,1002.40
2023-05-21T11:19:54.506Z,1002.35
2023-05-21T11:20:55.362Z,1002.31
2023-05-21T11:21:54.876Z,1002.24
2023-05-21T11:22:55.040Z,1002.33
2023-05-21T11:23:55.228Z,1002.23
2023-05-21T11:24:55.456Z,1002.19
2023-05-21T11:25:55.542Z,1002.13
2023-05-21T11:26:56.495Z,1002.13
2023-05-21T11:27:56.550Z,1002.15
2023-05-21T11:28:56.099Z,1002.08
2023-05-21T11:29:56.280Z,1002.12
2023-05-21T11:30:56.456Z,1002.14
2023-05-21T11:31:56.675Z,1002.10
2023-05-21T11:32:56.912Z,1002.10
2023-05-21T11:33:57.580Z,1002.11
2023-05-21T11:34:58.001Z,1002.11
2023-05-21T11:35:57.404Z,1002.10
2023-05-21T11:36:57.614Z,1002.04
2023-05-21T11:37:57.790Z,1002.02
2023-05-21T11:38:57.936Z,1001.96
2023-05-21T11:39:58.175Z,1001.93
2023-05-21T11:40:58.350Z,1001.93
2023-05-21T11:41:58.847Z,1001.87
2023-05-21T11:42:58.729Z,1001.86
2023-05-21T11:43:58.920Z,1001.88
2023-05-21T11:44:59.096Z,1001.79
2023-05-21T11:45:59.269Z,1001.77
2023-05-21T11:46:59.504Z,1001.77
2023-05-21T11:48:01.553Z,1001.81
2023-05-21T11:49:01.022Z,1001.75
2023-05-21T11:49:59.898Z,1001.71
2023-05-21T11:51:00.556Z,1001.72
2023-05-21T11:52:00.194Z,1001.78
2023-05-21T11:53:01.026Z,1001.79
2023-05-21T11:54:00.625Z,1001.67
2023-05-21T11:55:00.804Z,1001.65
2023-05-21T11:56:01.576Z,1001.61
2023-05-21T11:57:02.054Z,1001.55
2023-05-21T11:58:02.509Z,1001.43
2023-05-21T11:59:02.525Z,1001.44
2023-05-21T12:00:01.803Z,1001.36
2023-05-21T12:01:01.809Z,1001.35
2023-05-21T12:02:01.979Z,1001.27
2023-05-21T12:03:02.284Z,1001.30
2023-05-21T12:04:02.488Z,1001.24
2023-05-21T12:05:02.501Z,1001.12
2023-05-21T12:06:02.725Z,1001.14
2023-05-21T12:07:02.910Z,1001.10
2023-05-21T12:08:04.027Z,1001.05